sensor_id;sensor_type;location;lat;lon;timestamp;pressure;altitude;pressure_sealevel;temperature;humidity
64853;BME280;56050;55.558;-4.644;2023-02-10T00:02:23;103181.34;;;9.42;65.94
64853;BME280;56050;55.558;-4.644;2023-02-10T00:04:49;103191.28;;;9.42;65.77
64853;BME280;56050;55.558;-4.644;2023-02-10T00:07:16;103197.00;;;9.40;66.06
64853;BME280;56050;55.558;-4.644;2023-02-10T00:09:42;103202.06;;;9.42;65.78
64853;BME280;56050;55.558;-4.644;2023-02-10T00:12:07;103195.13;;;9.41;65.77
64853;BME280;56050;55.558;-4.644;2023-02-10T00:14:35;103192.72;;;9.39;65.60
64853;BME280;56050;55.558;-4.644;2023-02-10T00:17:00;103198.91;;;9.40;65.36
64853;BME280;56050;55.558;-4.644;2023-02-10T00:19:27;103211.88;;;9.38;65.15
64853;BME280;56050;55.558;-4.644;2023-02-10T00:21:53;103210.28;;;9.37;65.01
64853;BME280;56050;55.558;-4.644;2023-02-10T00:24:20;103211.41;;;9.36;63.83
64853;BME280;56050;55.558;-4.644;2023-02-10T00:26:46;103218.19;;;9.33;64.44
64853;BME280;56050;55.558;-4.644;2023-02-10T00:29:13;103215.84;;;9.32;63.58
64853;BME280;56050;55.558;-4.644;2023-02-10T00:31:38;103218.06;;;9.30;64.00
64853;BME280;56050;55.558;-4.644;2023-02-10T00:34:04;103212.19;;;9.28;63.95
64853;BME280;56050;55.558;-4.644;2023-02-10T00:36:29;103200.03;;;9.30;63.86
64853;BME280;56050;55.558;-4.644;2023-02-10T00:38:55;103190.03;;;9.31;63.38
64853;BME280;56050;55.558;-4.644;2023-02-10T00:41:22;103190.66;;;9.28;63.20
64853;BME280;56050;55.558;-4.644;2023-02-10T00:43:48;103175.50;;;9.23;63.25
64853;BME280;56050;55.558;-4.644;2023-02-10T00:46:16;103172.00;;;9.23;63.28
64853;BME280;56050;55.558;-4.644;2023-02-10T00:48:42;103164.25;;;9.21;63.23
64853;BME280;56050;55.558;-4.644;2023-02-10T00:51:07;103152.38;;;9.22;62.72
64853;BME280;56050;55.558;-4.644;2023-02-10T00:53:33;103147.00;;;9.22;62.65
64853;BME280;56050;55.558;-4.644;2023-02-10T00:55:59;103128.50;;;9.21;62.92
64853;BME280;56050;55.558;-4.644;2023-02-10T00:58:25;103133.41;;;9.19;62.56
64853;BME280;56050;55.558;-4.644;2023-02-10T01:00:52;103120.59;;;9.16;62.80
64853;BME280;56050;55.558;-4.644;2023-02-10T01:03:18;103144.81;;;9.16;62.62
64853;BME280;56050;55.558;-4.644;2023-02-10T01:05:43;103135.16;;;9.15;62.52
64853;BME280;56050;55.558;-4.644;2023-02-10T01:08:10;103133.88;;;9.12;61.88
64853;BME280;56050;55.558;-4.644;2023-02-10T01:10:36;103125.53;;;9.14;62.02
64853;BME280;56050;55.558;-4.644;2023-02-10T01:13:03;103122.03;;;9.13;62.22
64853;BME280;56050;55.558;-4.644;2023-02-10T01:15:29;103111.56;;;9.12;62.20
64853;BME280;56050;55.558;-4.644;2023-02-10T01:17:55;103107.78;;;9.13;62.17
64853;BME280;56050;55.558;-4.644;2023-02-10T01:20:20;103115.22;;;9.16;62.20
64853;BME280;56050;55.558;-4.644;2023-02-10T01:22:46;103122.19;;;9.17;61.91
64853;BME280;56050;55.558;-4.644;2023-02-10T01:25:11;103121.69;;;9.15;61.67
64853;BME280;56050;55.558;-4.644;2023-02-10T01:27:36;103113.97;;;9.13;61.72
64853;BME280;56050;55.558;-4.644;2023-02-10T01:30:02;103116.19;;;9.11;61.73
64853;BME280;56050;55.558;-4.644;2023-02-10T01:32:28;103110.31;;;9.09;61.84
64853;BME280;56050;55.558;-4.644;2023-02-10T01:34:53;103117.59;;;9.09;61.87
64853;BME280;56050;55.558;-4.644;2023-02-10T01:37:19;103113.00;;;9.09;61.73
64853;BME280;56050;55.558;-4.644;2023-02-10T01:39:44;103110.66;;;9.08;61.44
64853;BME280;56050;55.558;-4.644;2023-02-10T01:42:14;103105.91;;;9.05;61.45
64853;BME280;56050;55.558;-4.644;2023-02-10T01:47:06;103093.09;;;9.02;61.66
64853;BME280;56050;55.558;-4.644;2023-02-10T01:49:39;103086.91;;;9.01;61.72
64853;BME280;56050;55.558;-4.644;2023-02-10T01:52:11;103078.06;;;9.01;61.66
64853;BME280;56050;55.558;-4.644;2023-02-10T01:54:42;103088.34;;;8.99;61.16
64853;BME280;56050;55.558;-4.644;2023-02-10T01:57:10;103085.19;;;8.97;61.50
64853;BME280;56050;55.558;-4.644;2023-02-10T01:59:36;103081.72;;;8.96;61.58
64853;BME280;56050;55.558;-4.644;2023-02-10T02:02:04;103085.50;;;8.95;61.63
64853;BME280;56050;55.558;-4.644;2023-02-10T02:04:53;103076.66;;;8.95;61.76
64853;BME280;56050;55.558;-4.644;2023-02-10T02:07:22;103079.00;;;8.96;61.57
64853;BME280;56050;55.558;-4.644;2023-02-10T02:09:49;103076.66;;;8.95;61.70
64853;BME280;56050;55.558;-4.644;2023-02-10T02:15:07;103065.41;;;8.93;61.64
64853;BME280;56050;55.558;-4.644;2023-02-10T02:17:46;103063.53;;;8.93;61.35
64853;BME280;56050;55.558;-4.644;2023-02-10T02:26:19;103039.97;;;8.90;61.76
64853;BME280;56050;55.558;-4.644;2023-02-10T02:37:06;103021.16;;;8.90;61.95
64853;BME280;56050;55.558;-4.644;2023-02-10T02:39:33;103027.31;;;8.91;61.78
64853;BME280;56050;55.558;-4.644;2023-02-10T02:44:43;103023.03;;;8.90;61.97
64853;BME280;56050;55.558;-4.644;2023-02-10T02:58:13;103037.44;;;8.94;62.29
64853;BME280;56050;55.558;-4.644;2023-02-10T03:00:43;103039.78;;;8.95;62.36
64853;BME280;56050;55.558;-4.644;2023-02-10T03:03:10;103041.84;;;8.98;62.39
64853;BME280;56050;55.558;-4.644;2023-02-10T03:05:36;103036.16;;;9.00;62.37
64853;BME280;56050;55.558;-4.644;2023-02-10T03:08:01;103026.22;;;9.00;62.42
64853;BME280;56050;55.558;-4.644;2023-02-10T03:10:27;103035.84;;;9.01;62.46
64853;BME280;56050;55.558;-4.644;2023-02-10T03:12:52;103023.53;;;9.00;62.56
64853;BME280;56050;55.558;-4.644;2023-02-10T03:15:18;103030.47;;;9.01;62.63
64853;BME280;56050;55.558;-4.644;2023-02-10T03:17:43;103024.63;;;8.99;62.81
64853;BME280;56050;55.558;-4.644;2023-02-10T03:20:09;103014.97;;;8.98;62.68
64853;BME280;56050;55.558;-4.644;2023-02-10T03:22:35;103009.59;;;8.98;62.69
64853;BME280;56050;55.558;-4.644;2023-02-10T03:25:01;103002.66;;;8.97;62.83
64853;BME280;56050;55.558;-4.644;2023-02-10T03:27:26;102993.78;;;8.97;62.85
64853;BME280;56050;55.558;-4.644;2023-02-10T03:29:51;102978.75;;;8.96;63.03
64853;BME280;56050;55.558;-4.644;2023-02-10T03:32:18;102977.50;;;8.93;63.02
64853;BME280;56050;55.558;-4.644;2023-02-10T03:34:43;102963.59;;;8.91;63.01
64853;BME280;56050;55.558;-4.644;2023-02-10T03:37:09;102973.88;;;8.89;63.13
64853;BME280;56050;55.558;-4.644;2023-02-10T03:39:35;102972.31;;;8.88;63.17
64853;BME280;56050;55.558;-4.644;2023-02-10T03:42:00;102969.91;;;8.86;62.97
64853;BME280;56050;55.558;-4.644;2023-02-10T03:44:25;102960.44;;;8.89;63.18
64853;BME280;56050;55.558;-4.644;2023-02-10T03:46:51;102961.22;;;8.90;63.14
64853;BME280;56050;55.558;-4.644;2023-02-10T03:49:16;102952.69;;;8.88;63.29
64853;BME280;56050;55.558;-4.644;2023-02-10T03:51:42;102933.88;;;8.88;63.32
64853;BME280;56050;55.558;-4.644;2023-02-10T03:54:07;102933.56;;;8.89;63.25
64853;BME280;56050;55.558;-4.644;2023-02-10T03:56:33;102935.75;;;8.87;63.36
64853;BME280;56050;55.558;-4.644;2023-02-10T03:59:01;102939.72;;;8.90;63.29
64853;BME280;56050;55.558;-4.644;2023-02-10T04:01:27;102934.34;;;8.90;63.22
64853;BME280;56050;55.558;-4.644;2023-02-10T04:03:53;102922.03;;;8.89;63.41
64853;BME280;56050;55.558;-4.644;2023-02-10T04:06:18;102934.81;;;8.92;63.41
64853;BME280;56050;55.558;-4.644;2023-02-10T04:08:43;102920.25;;;8.93;63.53
64853;BME280;56050;55.558;-4.644;2023-02-10T04:11:09;102918.81;;;8.95;63.54
64853;BME280;56050;55.558;-4.644;2023-02-10T04:13:35;102910.75;;;8.95;63.38
64853;BME280;56050;55.558;-4.644;2023-02-10T04:16:03;102914.56;;;8.94;63.39
64853;BME280;56050;55.558;-4.644;2023-02-10T04:18:30;102910.31;;;8.93;63.42
64853;BME280;56050;55.558;-4.644;2023-02-10T04:20:55;102907.63;;;8.93;63.30
64853;BME280;56050;55.558;-4.644;2023-02-10T04:23:21;102894.50;;;8.92;63.58
64853;BME280;56050;55.558;-4.644;2023-02-10T04:25:46;102896.72;;;8.90;63.66
64853;BME280;56050;55.558;-4.644;2023-02-10T04:28:11;102891.66;;;8.88;63.85
64853;BME280;56050;55.558;-4.644;2023-02-10T04:30:37;102886.94;;;8.85;64.04
64853;BME280;56050;55.558;-4.644;2023-02-10T04:33:02;102889.16;;;8.83;64.01
64853;BME280;56050;55.558;-4.644;2023-02-10T04:35:28;102888.66;;;8.81;64.16
64853;BME280;56050;55.558;-4.644;2023-02-10T04:37:53;102891.22;;;8.77;64.43
64853;BME280;56050;55.558;-4.644;2023-02-10T04:40:20;102892.66;;;8.75;64.60
64853;BME280;56050;55.558;-4.644;2023-02-10T04:42:45;102885.22;;;8.72;64.59
64853;BME280;56050;55.558;-4.644;2023-02-10T04:45:10;102887.13;;;8.71;64.86
64853;BME280;56050;55.558;-4.644;2023-02-10T04:47:36;102890.13;;;8.70;64.87
64853;BME280;56050;55.558;-4.644;2023-02-10T04:50:01;102902.00;;;8.69;65.04
64853;BME280;56050;55.558;-4.644;2023-02-10T04:52:29;102899.78;;;8.62;65.34
64853;BME280;56050;55.558;-4.644;2023-02-10T04:54:55;102898.84;;;8.58;65.51
64853;BME280;56050;55.558;-4.644;2023-02-10T04:57:20;102907.38;;;8.60;65.93
64853;BME280;56050;55.558;-4.644;2023-02-10T04:59:45;102899.97;;;8.57;66.17
64853;BME280;56050;55.558;-4.644;2023-02-10T05:02:11;102893.66;;;8.53;66.17
64853;BME280;56050;55.558;-4.644;2023-02-10T05:04:36;102903.13;;;8.51;66.58
64853;BME280;56050;55.558;-4.644;2023-02-10T05:07:02;102897.75;;;8.51;66.53
64853;BME280;56050;55.558;-4.644;2023-02-10T05:09:27;102903.78;;;8.48;66.45
64853;BME280;56050;55.558;-4.644;2023-02-10T05:11:53;102903.78;;;8.48;66.88
64853;BME280;56050;55.558;-4.644;2023-02-10T05:14:18;102902.97;;;8.47;66.62
64853;BME280;56050;55.558;-4.644;2023-02-10T05:16:44;102902.50;;;8.45;66.85
64853;BME280;56050;55.558;-4.644;2023-02-10T05:19:09;102908.19;;;8.44;66.97
64853;BME280;56050;55.558;-4.644;2023-02-10T05:21:35;102900.78;;;8.41;67.07
64853;BME280;56050;55.558;-4.644;2023-02-10T05:24:00;102901.09;;;8.39;67.09
64853;BME280;56050;55.558;-4.644;2023-02-10T05:26:26;102894.59;;;8.40;67.30
64853;BME280;56050;55.558;-4.644;2023-02-10T05:28:51;102903.63;;;8.36;67.31
64853;BME280;56050;55.558;-4.644;2023-02-10T05:31:17;102903.63;;;8.36;67.64
64853;BME280;56050;55.558;-4.644;2023-02-10T05:33:42;102896.66;;;8.35;67.54
64853;BME280;56050;55.558;-4.644;2023-02-10T05:36:08;102900.59;;;8.37;67.71
64853;BME280;56050;55.558;-4.644;2023-02-10T05:38:33;102905.69;;;8.39;67.69
64853;BME280;56050;55.558;-4.644;2023-02-10T05:40:58;102905.03;;;8.42;67.71
64853;BME280;56050;55.558;-4.644;2023-02-10T05:43:24;102901.22;;;8.43;67.45
64853;BME280;56050;55.558;-4.644;2023-02-10T05:45:49;102894.44;;;8.45;67.64
64853;BME280;56050;55.558;-4.644;2023-02-10T05:48:15;102896.81;;;8.47;67.49
64853;BME280;56050;55.558;-4.644;2023-02-10T05:50:40;102897.63;;;8.47;67.69
64853;BME280;56050;55.558;-4.644;2023-02-10T05:53:06;102887.66;;;8.48;67.63
64853;BME280;56050;55.558;-4.644;2023-02-10T05:55:32;102887.00;;;8.51;67.72
64853;BME280;56050;55.558;-4.644;2023-02-10T05:57:57;102880.69;;;8.55;67.49
64853;BME280;56050;55.558;-4.644;2023-02-10T06:00:23;102881.16;;;8.57;67.45
64853;BME280;56050;55.558;-4.644;2023-02-10T06:02:48;102884.31;;;8.59;67.52
64853;BME280;56050;55.558;-4.644;2023-02-10T06:05:14;102881.78;;;8.63;67.42
64853;BME280;56050;55.558;-4.644;2023-02-10T06:07:39;102872.44;;;8.69;67.49
64853;BME280;56050;55.558;-4.644;2023-02-10T06:10:06;102883.00;;;8.74;67.41
64853;BME280;56050;55.558;-4.644;2023-02-10T06:12:32;102871.94;;;8.75;67.50
64853;BME280;56050;55.558;-4.644;2023-02-10T06:14:57;102874.31;;;8.77;67.60
64853;BME280;56050;55.558;-4.644;2023-02-10T06:17:23;102870.19;;;8.79;67.53
64853;BME280;56050;55.558;-4.644;2023-02-10T06:19:49;102873.03;;;8.83;67.52
64853;BME280;56050;55.558;-4.644;2023-02-10T06:22:15;102864.00;;;8.88;67.58
64853;BME280;56050;55.558;-4.644;2023-02-10T06:24:40;102874.56;;;8.93;67.49
64853;BME280;56050;55.558;-4.644;2023-02-10T06:27:07;102875.06;;;8.95;67.30
64853;BME280;56050;55.558;-4.644;2023-02-10T06:29:32;102869.69;;;8.95;67.35
64853;BME280;56050;55.558;-4.644;2023-02-10T06:31:57;102866.31;;;8.98;67.23
64853;BME280;56050;55.558;-4.644;2023-02-10T06:34:23;102859.19;;;9.02;67.17
64853;BME280;56050;55.558;-4.644;2023-02-10T06:36:48;102854.63;;;9.02;67.04
64853;BME280;56050;55.558;-4.644;2023-02-10T06:39:14;102848.09;;;9.03;67.35
64853;BME280;56050;55.558;-4.644;2023-02-10T06:41:39;102850.16;;;9.06;67.28
64853;BME280;56050;55.558;-4.644;2023-02-10T06:44:05;102845.25;;;9.08;67.26
64853;BME280;56050;55.558;-4.644;2023-02-10T06:46:30;102838.44;;;9.11;67.32
64853;BME280;56050;55.558;-4.644;2023-02-10T06:48:56;102831.94;;;9.12;67.42
64853;BME280;56050;55.558;-4.644;2023-02-10T06:51:21;102829.84;;;9.17;67.41
64853;BME280;56050;55.558;-4.644;2023-02-10T06:53:47;102829.53;;;9.19;67.42
64853;BME280;56050;55.558;-4.644;2023-02-10T06:56:13;102836.03;;;9.18;67.40
64853;BME280;56050;55.558;-4.644;2023-02-10T06:58:38;102836.16;;;9.21;67.54
64853;BME280;56050;55.558;-4.644;2023-02-10T07:01:08;102843.09;;;9.22;67.70
64853;BME280;56050;55.558;-4.644;2023-02-10T07:03:34;102829.34;;;9.24;67.66
64853;BME280;56050;55.558;-4.644;2023-02-10T07:05:59;102836.63;;;9.23;67.58
64853;BME280;56050;55.558;-4.644;2023-02-10T07:08:25;102829.34;;;9.24;67.63
64853;BME280;56050;55.558;-4.644;2023-02-10T07:10:50;102836.78;;;9.27;67.74
64853;BME280;56050;55.558;-4.644;2023-02-10T07:13:16;102827.28;;;9.29;67.81
64853;BME280;56050;55.558;-4.644;2023-02-10T07:15:41;102828.84;;;9.30;67.84
64853;BME280;56050;55.558;-4.644;2023-02-10T07:18:07;102822.50;;;9.35;67.78
64853;BME280;56050;55.558;-4.644;2023-02-10T07:20:32;102816.75;;;9.36;67.87
64853;BME280;56050;55.558;-4.644;2023-02-10T07:22:58;102828.31;;;9.37;67.72
64853;BME280;56050;55.558;-4.644;2023-02-10T07:25:23;102820.69;;;9.39;67.88
64853;BME280;56050;55.558;-4.644;2023-02-10T07:27:49;102819.59;;;9.40;67.69
64853;BME280;56050;55.558;-4.644;2023-02-10T07:30:14;102823.69;;;9.46;67.81
64853;BME280;56050;55.558;-4.644;2023-02-10T07:32:39;102815.63;;;9.46;67.73
64853;BME280;56050;55.558;-4.644;2023-02-10T07:35:07;102814.81;;;9.45;67.78
64853;BME280;56050;55.558;-4.644;2023-02-10T07:37:33;102811.81;;;9.47;67.72
64853;BME280;56050;55.558;-4.644;2023-02-10T07:39:58;102798.03;;;9.49;68.16
64853;BME280;56050;55.558;-4.644;2023-02-10T07:42:23;102800.38;;;9.50;67.98
64853;BME280;56050;55.558;-4.644;2023-02-10T07:44:49;102803.84;;;9.51;68.04
64853;BME280;56050;55.558;-4.644;2023-02-10T07:47:14;102805.09;;;9.53;68.22
64853;BME280;56050;55.558;-4.644;2023-02-10T07:49:40;102802.91;;;9.55;68.23
64853;BME280;56050;55.558;-4.644;2023-02-10T07:52:05;102802.56;;;9.57;68.47
64853;BME280;56050;55.558;-4.644;2023-02-10T07:54:31;102796.06;;;9.58;68.45
64853;BME280;56050;55.558;-4.644;2023-02-10T07:56:56;102788.44;;;9.60;68.48
64853;BME280;56050;55.558;-4.644;2023-02-10T07:59:22;102795.88;;;9.63;68.54
64853;BME280;56050;55.558;-4.644;2023-02-10T08:01:48;102785.25;;;9.66;68.63
64853;BME280;56050;55.558;-4.644;2023-02-10T08:04:13;102786.00;;;9.67;68.79
64853;BME280;56050;55.558;-4.644;2023-02-10T08:06:39;102789.47;;;9.67;68.76
64853;BME280;56050;55.558;-4.644;2023-02-10T08:09:06;102798.34;;;9.68;68.85
64853;BME280;56050;55.558;-4.644;2023-02-10T08:11:32;102793.41;;;9.70;68.96
64853;BME280;56050;55.558;-4.644;2023-02-10T08:13:57;102793.25;;;9.75;68.78
64853;BME280;56050;55.558;-4.644;2023-02-10T08:16:22;102779.78;;;9.75;69.04
64853;BME280;56050;55.558;-4.644;2023-02-10T08:18:48;102785.94;;;9.75;68.95
64853;BME280;56050;55.558;-4.644;2023-02-10T08:21:13;102780.56;;;9.75;69.00
64853;BME280;56050;55.558;-4.644;2023-02-10T08:23:39;102770.56;;;9.76;68.97
64853;BME280;56050;55.558;-4.644;2023-02-10T08:26:07;102772.16;;;9.77;69.12
64853;BME280;56050;55.558;-4.644;2023-02-10T08:28:34;102770.56;;;9.76;69.27
64853;BME280;56050;55.558;-4.644;2023-02-10T08:31:03;102765.66;;;9.78;69.28
64853;BME280;56050;55.558;-4.644;2023-02-10T08:33:30;102779.25;;;9.81;69.31
64853;BME280;56050;55.558;-4.644;2023-02-10T08:35:56;102777.00;;;9.83;69.19
64853;BME280;56050;55.558;-4.644;2023-02-10T08:38:22;102775.22;;;9.87;69.32
64853;BME280;56050;55.558;-4.644;2023-02-10T08:40:57;102773.34;;;9.88;69.26
64853;BME280;56050;55.558;-4.644;2023-02-10T08:43:23;102774.56;;;9.90;69.26
64853;BME280;56050;55.558;-4.644;2023-02-10T08:45:49;102783.44;;;9.91;69.28
64853;BME280;56050;55.558;-4.644;2023-02-10T08:48:14;102777.41;;;9.94;69.33
64853;BME280;56050;55.558;-4.644;2023-02-10T08:50:40;102784.34;;;9.95;69.26
64853;BME280;56050;55.558;-4.644;2023-02-10T08:53:05;102789.06;;;9.98;69.26
64853;BME280;56050;55.558;-4.644;2023-02-10T08:55:31;102786.06;;;9.99;69.33
64853;BME280;56050;55.558;-4.644;2023-02-10T08:57:56;102784.25;;;10.03;69.29
64853;BME280;56050;55.558;-4.644;2023-02-10T09:00:22;102783.94;;;10.05;69.32
64853;BME280;56050;55.558;-4.644;2023-02-10T09:02:50;102779.31;;;10.05;69.17
64853;BME280;56050;55.558;-4.644;2023-02-10T09:05:16;102777.56;;;10.10;69.18
64853;BME280;56050;55.558;-4.644;2023-02-10T09:07:44;102770.72;;;10.12;69.58
64853;BME280;56050;55.558;-4.644;2023-02-10T09:10:11;102778.78;;;10.12;69.65
64853;BME280;56050;55.558;-4.644;2023-02-10T09:12:38;102760.41;;;10.14;69.88
64853;BME280;56050;55.558;-4.644;2023-02-10T09:15:04;102767.38;;;10.15;69.40
64853;BME280;56050;55.558;-4.644;2023-02-10T09:17:29;102776.72;;;10.18;69.54
64853;BME280;56050;55.558;-4.644;2023-02-10T09:19:55;102782.53;;;10.20;69.62
64853;BME280;56050;55.558;-4.644;2023-02-10T09:22:20;102765.13;;;10.17;69.57
64853;BME280;56050;55.558;-4.644;2023-02-10T09:24:45;102769.88;;;10.20;69.71
64853;BME280;56050;55.558;-4.644;2023-02-10T09:27:14;102759.09;;;10.20;69.65
64853;BME280;56050;55.558;-4.644;2023-02-10T09:29:41;102764.47;;;10.20;69.68
64853;BME280;56050;55.558;-4.644;2023-02-10T09:32:06;102761.47;;;10.22;69.64
64853;BME280;56050;55.558;-4.644;2023-02-10T09:34:32;102768.09;;;10.24;69.55
64853;BME280;56050;55.558;-4.644;2023-02-10T09:36:57;102763.03;;;10.23;69.50
64853;BME280;56050;55.558;-4.644;2023-02-10T09:39:26;102763.69;;;10.20;69.67
64853;BME280;56050;55.558;-4.644;2023-02-10T09:44:35;102766.72;;;10.18;69.75
64853;BME280;56050;55.558;-4.644;2023-02-10T09:49:46;102771.31;;;10.18;69.89
64853;BME280;56050;55.558;-4.644;2023-02-10T09:54:43;102782.53;;;10.20;69.94
64853;BME280;56050;55.558;-4.644;2023-02-10T09:57:18;102779.06;;;10.19;69.94
64853;BME280;56050;55.558;-4.644;2023-02-10T09:59:48;102780.63;;;10.20;69.97
64853;BME280;56050;55.558;-4.644;2023-02-10T10:02:35;102788.72;;;10.20;70.14
64853;BME280;56050;55.558;-4.644;2023-02-10T10:05:15;102780.63;;;10.20;70.13
64853;BME280;56050;55.558;-4.644;2023-02-10T10:07:45;102796.00;;;10.20;70.04
64853;BME280;56050;55.558;-4.644;2023-02-10T10:12:48;102783.78;;;10.22;70.73
64853;BME280;56050;55.558;-4.644;2023-02-10T10:15:17;102790.31;;;10.21;70.40
64853;BME280;56050;55.558;-4.644;2023-02-10T10:18:10;102793.78;;;10.22;70.39
64853;BME280;56050;55.558;-4.644;2023-02-10T10:31:52;102802.63;;;10.22;70.68
64853;BME280;56050;55.558;-4.644;2023-02-10T10:34:23;102797.72;;;10.24;70.72
64853;BME280;56050;55.558;-4.644;2023-02-10T10:36:55;102794.69;;;10.26;70.83
64853;BME280;56050;55.558;-4.644;2023-02-10T10:39:34;102787.53;;;10.30;71.24
64853;BME280;56050;55.558;-4.644;2023-02-10T10:44:39;102785.84;;;10.37;71.26
64853;BME280;56050;55.558;-4.644;2023-02-10T10:47:27;102778.22;;;10.39;71.15
64853;BME280;56050;55.558;-4.644;2023-02-10T10:49:54;102792.91;;;10.42;71.18
64853;BME280;56050;55.558;-4.644;2023-02-10T10:54:49;102796.19;;;10.47;71.07
64853;BME280;56050;55.558;-4.644;2023-02-10T10:57:17;102790.91;;;10.51;71.17
64853;BME280;56050;55.558;-4.644;2023-02-10T10:59:48;102790.13;;;10.50;71.06
64853;BME280;56050;55.558;-4.644;2023-02-10T11:02:20;102791.03;;;10.54;71.13
64853;BME280;56050;55.558;-4.644;2023-02-10T11:04:58;102788.34;;;10.54;71.22
64853;BME280;56050;55.558;-4.644;2023-02-10T11:07:24;102791.94;;;10.58;71.16
64853;BME280;56050;55.558;-4.644;2023-02-10T11:09:52;102779.59;;;10.57;71.07
64853;BME280;56050;55.558;-4.644;2023-02-10T11:12:32;102783.41;;;10.56;71.26
64853;BME280;56050;55.558;-4.644;2023-02-10T11:15:00;102780.03;;;10.59;71.15
64853;BME280;56050;55.558;-4.644;2023-02-10T11:17:34;102777.78;;;10.61;71.37
64853;BME280;56050;55.558;-4.644;2023-02-10T11:22:38;102772.84;;;10.63;71.48
64853;BME280;56050;55.558;-4.644;2023-02-10T11:25:34;102769.38;;;10.63;71.52
64853;BME280;56050;55.558;-4.644;2023-02-10T11:28:01;102771.28;;;10.63;71.85
64853;BME280;56050;55.558;-4.644;2023-02-10T11:30:38;102773.19;;;10.62;71.71
64853;BME280;56050;55.558;-4.644;2023-02-10T11:33:05;102772.53;;;10.65;71.71
64853;BME280;56050;55.558;-4.644;2023-02-10T11:35:32;102762.53;;;10.66;71.72
64853;BME280;56050;55.558;-4.644;2023-02-10T11:38:03;102769.94;;;10.69;71.84
64853;BME280;56050;55.558;-4.644;2023-02-10T11:40:47;102773.41;;;10.69;71.69
64853;BME280;56050;55.558;-4.644;2023-02-10T11:43:14;102775.00;;;10.70;71.96
64853;BME280;56050;55.558;-4.644;2023-02-10T11:45:55;102767.25;;;10.69;72.04
64853;BME280;56050;55.558;-4.644;2023-02-10T11:48:22;102769.59;;;10.70;72.11
64853;BME280;56050;55.558;-4.644;2023-02-10T11:51:00;102776.56;;;10.71;72.23
64853;BME280;56050;55.558;-4.644;2023-02-10T11:53:28;102770.16;;;10.76;72.36
64853;BME280;56050;55.558;-4.644;2023-02-10T11:56:02;102766.78;;;10.79;72.40
64853;BME280;56050;55.558;-4.644;2023-02-10T12:01:33;102773.53;;;10.85;72.43
64853;BME280;56050;55.558;-4.644;2023-02-10T12:12:52;102784.66;;;10.95;72.17
64853;BME280;56050;55.558;-4.644;2023-02-10T12:15:46;102779.69;;;10.97;72.03
64853;BME280;56050;55.558;-4.644;2023-02-10T12:26:53;102783.50;;;11.08;71.85
64853;BME280;56050;55.558;-4.644;2023-02-10T13:04:31;102817.50;;;11.49;71.08
64853;BME280;56050;55.558;-4.644;2023-02-10T13:14:39;102801.19;;;11.58;71.10
64853;BME280;56050;55.558;-4.644;2023-02-10T13:18:37;102798.16;;;11.59;70.98
64853;BME280;56050;55.558;-4.644;2023-02-10T13:22:08;102802.88;;;11.62;70.84
64853;BME280;56050;55.558;-4.644;2023-02-10T13:24:47;102804.53;;;11.67;70.79
64853;BME280;56050;55.558;-4.644;2023-02-10T13:27:27;102807.69;;;11.69;70.81
64853;BME280;56050;55.558;-4.644;2023-02-10T13:35:44;102809.59;;;11.68;70.79
64853;BME280;56050;55.558;-4.644;2023-02-10T13:38:16;102817.38;;;11.70;70.72
64853;BME280;56050;55.558;-4.644;2023-02-10T13:40:54;102814.69;;;11.70;70.75
64853;BME280;56050;55.558;-4.644;2023-02-10T13:43:41;102819.41;;;11.73;70.84
64853;BME280;56050;55.558;-4.644;2023-02-10T13:46:20;102819.41;;;11.73;71.11
64853;BME280;56050;55.558;-4.644;2023-02-10T13:48:54;102824.81;;;11.73;71.10
64853;BME280;56050;55.558;-4.644;2023-02-10T13:51:35;102821.75;;;11.74;71.17
64853;BME280;56050;55.558;-4.644;2023-02-10T13:54:03;102828.06;;;11.78;71.15
64853;BME280;56050;55.558;-4.644;2023-02-10T13:56:31;102834.25;;;11.79;71.25
64853;BME280;56050;55.558;-4.644;2023-02-10T13:59:02;102837.72;;;11.79;71.30
64853;BME280;56050;55.558;-4.644;2023-02-10T14:04:01;102846.03;;;11.87;71.03
64853;BME280;56050;55.558;-4.644;2023-02-10T14:06:35;102845.66;;;11.88;70.98
64853;BME280;56050;55.558;-4.644;2023-02-10T14:09:17;102849.16;;;11.89;70.80
64853;BME280;56050;55.558;-4.644;2023-02-10T14:11:43;102856.16;;;11.90;70.62
64853;BME280;56050;55.558;-4.644;2023-02-10T14:14:32;102852.22;;;11.87;70.57
64853;BME280;56050;55.558;-4.644;2023-02-10T14:19:43;102850.38;;;11.91;70.47
64853;BME280;56050;55.558;-4.644;2023-02-10T14:22:41;102862.41;;;11.94;70.22
64853;BME280;56050;55.558;-4.644;2023-02-10T14:27:35;102852.09;;;11.96;69.96
64853;BME280;56050;55.558;-4.644;2023-02-10T14:30:21;102858.25;;;11.96;70.28
64853;BME280;56050;55.558;-4.644;2023-02-10T14:32:47;102861.75;;;11.97;70.05
64853;BME280;56050;55.558;-4.644;2023-02-10T14:35:21;102860.19;;;11.96;69.91
64853;BME280;56050;55.558;-4.644;2023-02-10T14:37:52;102853.19;;;11.95;69.96
64853;BME280;56050;55.558;-4.644;2023-02-10T14:40:20;102859.81;;;11.97;69.90
64853;BME280;56050;55.558;-4.644;2023-02-10T14:42:47;102854.06;;;11.99;70.06
64853;BME280;56050;55.558;-4.644;2023-02-10T14:45:31;102854.53;;;12.01;70.13
64853;BME280;56050;55.558;-4.644;2023-02-10T14:47:59;102855.75;;;12.03;69.82
64853;BME280;56050;55.558;-4.644;2023-02-10T14:50:31;102853.84;;;12.04;69.73
64853;BME280;56050;55.558;-4.644;2023-02-10T14:52:58;102857.00;;;12.06;69.91
64853;BME280;56050;55.558;-4.644;2023-02-10T14:55:34;102844.28;;;12.06;69.85
64853;BME280;56050;55.558;-4.644;2023-02-10T15:00:30;102855.50;;;12.08;69.64
64853;BME280;56050;55.558;-4.644;2023-02-10T15:02:58;102867.53;;;12.11;69.49
64853;BME280;56050;55.558;-4.644;2023-02-10T15:05:27;102864.06;;;12.10;69.42
64853;BME280;56050;55.558;-4.644;2023-02-10T15:07:57;102859.00;;;12.09;69.50
64853;BME280;56050;55.558;-4.644;2023-02-10T15:10:41;102862.81;;;12.08;69.46
64853;BME280;56050;55.558;-4.644;2023-02-10T15:13:09;102865.97;;;12.10;69.20
64853;BME280;56050;55.558;-4.644;2023-02-10T15:15:39;102869.03;;;12.08;69.27